Terminal Aerodrome Forecast
Issued by NWS

Home | Current Version | Previous Version | Text Only | Print | Product List | Glossary On
Versions: 1 2 3 4 5 6 7 8 9 10 11 12 13 14 15 16 17 18 19 20 21 22 23 24 25 26 27 28 29 30 31 32 33 34 35 36 37
000
FTUS46 KEKA 191140
TAFUKI
TAF
KUKI 191140Z 1912/2012 00000KT P6SM VCSH FEW008 BKN040
     FM191900 34005KT 6SM -SHRA SCT015 SCT025 OVC050
     FM200000 VRB04KT 6SM BR SCT005 SCT035 BKN250=

USA.gov is the U.S. government's official web portal to all federal, state and local government web resources and services.